createdAt,value
2023-04-07T00:00:39.100Z,0.9
2023-04-07T00:05:39.702Z,0.6
2023-04-07T00:08:01.998Z,0.7
2023-04-07T00:13:02.454Z,0.5
2023-04-07T00:18:02.974Z,0.6
2023-04-07T00:23:03.316Z,0.5
2023-04-07T00:28:03.818Z,0.5
2023-04-07T00:33:04.207Z,0.7
2023-04-07T00:38:04.652Z,0.6
2023-04-07T00:43:05.088Z,0.6
2023-04-07T00:48:05.901Z,0.4
2023-04-07T00:53:05.989Z,0.5
2023-04-07T00:58:06.554Z,0.3
2023-04-07T01:03:07.037Z,0.4
2023-04-07T01:08:07.358Z,0.4
2023-04-07T01:13:07.789Z,0.4
2023-04-07T01:18:08.167Z,0.4
2023-04-07T01:23:08.630Z,0.3
2023-04-07T01:28:09.164Z,0.6
2023-04-07T01:33:09.618Z,0.4
2023-04-07T01:38:09.948Z,0.5
2023-04-07T01:43:10.521Z,0.5
2023-04-07T01:48:10.868Z,0.5
2023-04-07T01:53:11.310Z,0.6
2023-04-07T01:58:11.751Z,0.2
2023-04-07T02:03:12.259Z,0.5
2023-04-07T02:08:12.559Z,0.3
2023-04-07T02:13:12.987Z,0.7
2023-04-07T02:18:13.412Z,0.5
2023-04-07T02:23:13.745Z,1.1
2023-04-07T02:28:14.615Z,0.8
2023-04-07T02:33:14.583Z,0.5
2023-04-07T02:38:15.013Z,0.7
2023-04-07T02:43:15.564Z,0.5
2023-04-07T02:48:15.844Z,0.6
2023-04-07T02:53:16.612Z,0.5
2023-04-07T02:58:16.745Z,0.3
2023-04-07T03:03:17.190Z,0.3
2023-04-07T03:08:17.571Z,0.2
2023-04-07T03:13:17.970Z,0.4
2023-04-07T03:18:18.347Z,0.3
2023-04-07T03:23:18.673Z,0.4
2023-04-07T03:28:19.388Z,0.4
2023-04-07T03:33:19.447Z,0.2
2023-04-07T03:38:19.866Z,0.4
2023-04-07T03:43:20.393Z,0.2
2023-04-07T03:48:20.623Z,0.4
2023-04-07T03:53:21.026Z,0.6
2023-04-07T03:58:21.593Z,0.7
2023-04-07T04:03:21.946Z,0.5
2023-04-07T04:08:22.186Z,0.7
2023-04-07T04:13:22.641Z,0.4
2023-04-07T04:18:22.970Z,0.4
2023-04-07T04:23:23.516Z,0.3
2023-04-07T04:28:24.057Z,0.5
2023-04-07T04:33:24.149Z,0.4
2023-04-07T04:38:24.534Z,0.4
2023-04-07T04:43:25.126Z,0.4
2023-04-07T04:48:25.467Z,0.5
2023-04-07T04:53:25.843Z,0.2
2023-04-07T04:58:26.362Z,0.4
2023-04-07T05:03:27.132Z,0.5
2023-04-07T05:08:27.308Z,0.7
2023-04-07T05:13:27.752Z,0.2
2023-04-07T05:18:28.066Z,0.2
2023-04-07T05:23:28.797Z,0.5
2023-04-07T05:28:28.938Z,0.5
2023-04-07T05:33:29.307Z,0.3
2023-04-07T05:38:29.629Z,0.4
2023-04-07T05:43:30.123Z,0.5
2023-04-07T05:48:30.444Z,0.5
2023-04-07T05:53:30.765Z,0.7
2023-04-07T05:58:31.257Z,0.3
2023-04-07T06:03:31.790Z,0.5
2023-04-07T06:08:31.943Z,0.3
2023-04-07T06:13:32.488Z,0.2
2023-04-07T06:18:32.714Z,0.5
2023-04-07T06:23:33.101Z,0.2
2023-04-07T06:28:33.948Z,0.5
2023-04-07T06:33:33.938Z,0.4
2023-04-07T06:38:34.434Z,0.7
2023-04-07T06:43:34.874Z,0.3
2023-04-07T06:48:35.288Z,0.3
2023-04-07T06:53:35.667Z,0.4
2023-04-07T06:58:36.294Z,0.3
2023-04-07T07:03:36.693Z,0.5
2023-04-07T07:08:36.985Z,0.4
2023-04-07T07:13:37.547Z,1.0
2023-04-07T07:18:37.898Z,0.3
2023-04-07T07:23:38.600Z,0.4
2023-04-07T07:28:39.164Z,0.5
2023-04-07T07:33:39.255Z,0.4
2023-04-07T07:38:39.660Z,0.7
2023-04-07T07:43:40.116Z,0.5
2023-04-07T07:48:40.569Z,0.5
2023-04-07T07:53:40.953Z,0.4
2023-04-07T07:58:41.549Z,0.7
2023-04-07T08:03:42.079Z,0.7
2023-04-07T08:08:42.384Z,0.5
2023-04-07T08:13:42.878Z,0.5
2023-04-07T08:18:43.350Z,0.5
2023-04-07T08:23:43.733Z,0.6
2023-04-07T08:28:44.593Z,0.5
2023-04-07T08:33:44.735Z,0.6
2023-04-07T08:38:45.202Z,0.6
2023-04-07T08:43:45.868Z,0.7
2023-04-07T08:48:47.556Z,0.7
2023-04-07T08:53:46.874Z,0.6
2023-04-07T08:58:47.155Z,0.5
2023-04-07T09:03:47.887Z,0.6
2023-04-07T09:08:48.109Z,0.5
2023-04-07T09:13:48.921Z,0.7
2023-04-07T09:18:49.039Z,0.6
2023-04-07T09:23:50.103Z,0.5
2023-04-07T09:28:50.330Z,0.5
2023-04-07T09:33:50.433Z,0.3
2023-04-07T09:38:50.850Z,0.6
2023-04-07T09:43:51.505Z,0.7
2023-04-07T09:48:51.844Z,0.4
2023-04-07T09:53:52.531Z,0.7
2023-04-07T09:58:52.888Z,0.4
2023-04-07T10:03:53.454Z,0.4
2023-04-07T10:08:53.876Z,0.3
2023-04-07T10:13:54.528Z,0.4
2023-04-07T10:18:54.902Z,0.6
2023-04-07T10:23:55.784Z,0.6
2023-04-07T10:28:56.147Z,0.6
2023-04-07T10:33:56.575Z,0.3
2023-04-07T10:38:57.041Z,0.4
2023-04-07T10:43:57.707Z,0.3
2023-04-07T10:48:58.112Z,0.5
2023-04-07T10:53:58.735Z,0.5
2023-04-07T10:58:59.273Z,0.3
2023-04-07T11:03:59.879Z,0.2
2023-04-07T11:09:00.380Z,0.2
2023-04-07T11:14:00.903Z,0.3
2023-04-07T11:19:01.419Z,0.3
2023-04-07T11:24:01.911Z,0.7
2023-04-07T11:29:02.841Z,0.3
2023-04-07T11:34:02.958Z,0.4
2023-04-07T11:39:03.525Z,0.5
2023-04-07T11:44:04.107Z,0.3
2023-04-07T11:49:04.660Z,0.4
2023-04-07T11:54:05.192Z,0.3
2023-04-07T11:59:05.838Z,0.2
2023-04-07T12:04:06.523Z,0.4
2023-04-07T12:09:06.937Z,0.3
2023-04-07T12:14:07.655Z,0.5
2023-04-07T12:19:08.106Z,0.5
2023-04-07T12:24:09.083Z,0.3
2023-04-07T12:29:09.851Z,0.4
2023-04-07T12:34:09.886Z,0.2
2023-04-07T12:39:10.574Z,0.2
2023-04-07T12:44:11.143Z,0.2
2023-04-07T12:49:11.765Z,0.4
2023-04-07T12:54:12.351Z,0.3
2023-04-07T12:59:12.969Z,0.3
2023-04-07T13:04:13.670Z,0.4
2023-04-07T13:09:14.127Z,0.3
2023-04-07T13:14:14.885Z,0.5
2023-04-07T13:19:15.449Z,0.5
2023-04-07T13:24:16.048Z,0.5
2023-04-07T13:29:16.897Z,0.4
2023-04-07T13:34:17.156Z,0.6
2023-04-07T13:39:17.770Z,0.6
2023-04-07T13:44:18.537Z,0.5
2023-04-07T13:49:19.028Z,0.7
2023-04-07T13:54:19.760Z,0.6
2023-04-07T13:59:20.454Z,0.5
2023-04-07T14:04:21.153Z,0.7
2023-04-07T14:09:21.694Z,0.5
2023-04-07T14:14:22.449Z,0.4
2023-04-07T14:19:23.004Z,0.5
2023-04-07T14:24:23.981Z,0.5
2023-04-07T14:29:24.726Z,0.5
2023-04-07T14:34:25.069Z,0.4
2023-04-07T14:39:25.871Z,0.5
2023-04-07T14:44:26.411Z,0.4
2023-04-07T14:49:26.927Z,0.5
2023-04-07T14:54:27.687Z,0.7
2023-04-07T14:59:28.448Z,0.6
2023-04-07T15:04:29.063Z,0.4
2023-04-07T15:09:29.660Z,0.5
2023-04-07T15:14:30.435Z,0.5
2023-04-07T15:19:30.952Z,0.5
2023-04-07T15:24:31.674Z,0.4
2023-04-07T15:29:32.405Z,0.6
2023-04-07T15:34:32.897Z,0.4
2023-04-07T15:39:33.624Z,0.4
2023-04-07T15:44:34.274Z,0.4
2023-04-07T15:49:34.817Z,0.4
2023-04-07T15:54:35.492Z,0.4
2023-04-07T15:59:36.163Z,0.4
2023-04-07T16:04:36.774Z,0.3
2023-04-07T16:09:37.484Z,0.5
2023-04-07T16:14:38.107Z,0.4
2023-04-07T16:19:39.700Z,0.5
2023-04-07T16:24:39.301Z,0.6
2023-04-07T16:29:40.018Z,0.5
2023-04-07T16:34:40.810Z,0.7
2023-04-07T16:39:41.459Z,0.8
2023-04-07T16:44:42.324Z,1.0
2023-04-07T16:49:42.726Z,1.1
2023-04-07T16:54:43.485Z,1.1
2023-04-07T16:59:44.182Z,1.2
2023-04-07T17:04:44.895Z,1.4
2023-04-07T17:09:45.564Z,1.6
2023-04-07T17:14:46.233Z,1.6
2023-04-07T17:19:46.815Z,1.3
2023-04-07T17:24:47.571Z,1.0
2023-04-07T17:29:48.251Z,1.3
2023-04-07T17:34:48.818Z,1.8
2023-04-07T17:39:49.589Z,1.8
2023-04-07T17:44:50.118Z,2.1
2023-04-07T17:49:50.726Z,1.7
2023-04-07T17:54:51.516Z,1.2
2023-04-07T17:57:53.809Z,1.2
2023-04-07T17:59:52.209Z,1.4
2023-04-07T18:04:44.383Z,1.4
2023-04-07T18:04:52.962Z,1.8
2023-04-07T18:09:53.403Z,8.1
2023-04-07T18:14:54.157Z,2.9
2023-04-07T18:19:54.654Z,3.6
2023-04-07T18:24:55.203Z,4.8
2023-04-07T18:29:55.922Z,4.9
2023-04-07T18:34:56.470Z,1.5
2023-04-07T18:39:57.051Z,1.0
2023-04-07T18:44:57.941Z,0.7
2023-04-07T18:49:58.301Z,0.9
2023-04-07T18:54:58.849Z,0.6
2023-04-07T18:59:59.605Z,0.6
2023-04-07T19:05:00.100Z,0.6
2023-04-07T19:10:00.725Z,0.7
2023-04-07T19:15:01.342Z,0.7
2023-04-07T19:20:01.805Z,0.5
2023-04-07T19:25:02.751Z,0.6
2023-04-07T19:30:03.090Z,0.9
2023-04-07T19:35:03.658Z,0.8
2023-04-07T19:40:04.167Z,0.6
2023-04-07T19:45:04.819Z,0.6
2023-04-07T19:50:05.449Z,0.5
2023-04-07T19:55:06.003Z,0.5
2023-04-07T20:00:06.631Z,0.8
2023-04-07T20:05:07.017Z,1.0
2023-04-07T20:10:07.585Z,0.8
2023-04-07T20:15:08.275Z,0.6
2023-04-07T20:20:08.761Z,0.7
2023-04-07T20:25:09.380Z,0.7
2023-04-07T20:30:09.875Z,0.8
2023-04-07T20:35:10.392Z,1.4
2023-04-07T20:40:10.873Z,1.1
2023-04-07T20:45:11.571Z,1.3
2023-04-07T20:50:11.985Z,1.0
2023-04-07T20:55:12.566Z,1.2
2023-04-07T21:00:13.112Z,1.4
2023-04-07T21:05:13.721Z,1.5
2023-04-07T21:10:14.116Z,1.7
2023-04-07T21:15:14.846Z,2.1
2023-04-07T21:20:15.320Z,2.3
2023-04-07T21:25:15.796Z,1.8
2023-04-07T21:30:16.502Z,2.2
2023-04-07T21:35:16.909Z,2.2
2023-04-07T21:40:17.488Z,2.1
2023-04-07T21:45:18.185Z,2.5
2023-04-07T21:50:18.600Z,2.6
2023-04-07T21:55:19.080Z,2.6
2023-04-07T22:00:19.685Z,2.1
2023-04-07T22:05:20.155Z,2.6
2023-04-07T22:10:20.761Z,2.7
2023-04-07T22:15:21.334Z,2.2
2023-04-07T22:20:21.757Z,2.6
2023-04-07T22:25:22.331Z,2.5
2023-04-07T22:30:22.962Z,2.7
2023-04-07T22:35:23.593Z,2.9
2023-04-07T22:40:23.860Z,2.7
2023-04-07T22:45:24.595Z,3.0
2023-04-07T22:50:24.962Z,2.8
2023-04-07T22:55:25.579Z,2.6
2023-04-07T23:00:26.129Z,3.3
2023-04-07T23:05:26.668Z,2.8
2023-04-07T23:10:27.174Z,2.9
2023-04-07T23:15:27.765Z,2.9
2023-04-07T23:20:28.304Z,3.4
2023-04-07T23:25:28.773Z,3.3
2023-04-07T23:30:29.710Z,4.0
2023-04-07T23:35:29.901Z,3.2
2023-04-07T23:40:30.463Z,3.5
2023-04-07T23:45:31.033Z,4.5
2023-04-07T23:50:31.577Z,3.9
2023-04-07T23:55:32.111Z,3.5
